Time;durP1;ratioP1;P1;durP2;ratioP2;P2;SDS_P1;SDS_P2;PMS_P1;PMS_P2;Temp;Humidity;BMP_temperature;BMP_pressure;BME280_temperature;BME280_humidity;BME280_pressure;Samples;Min_cycle;Max_cycle;Signal;HPM_P1;HPM_P2
2022/06/14 00:00:56;;;;;;;6.25;2.15;;;;;;;19.06;42.61;101213.03;4162353;28;20499;-67
2022/06/14 00:03:00;;;;;;;5.47;2.45;;;;;;;19.05;42.93;101220.97;4162776;28;20048;-67
2022/06/14 00:05:03;;;;;;;7.50;2.47;;;;;;;19.05;42.62;101211.28;4163765;28;20404;-67
2022/06/14 00:07:06;;;;;;;12.70;2.67;;;;;;;19.12;42.53;101214.75;4162790;28;20167;-67
2022/06/14 00:09:09;;;;;;;7.50;2.15;;;;;;;19.12;42.49;101212.97;4167615;28;20135;-67
2022/06/14 00:11:14;;;;;;;8.93;2.13;;;;;;;19.10;42.77;101213.88;4171021;28;20412;-66
2022/06/14 00:13:18;;;;;;;6.13;2.10;;;;;;;19.04;42.69;101204.28;4165755;28;20053;-67
2022/06/14 00:15:22;;;;;;;6.05;2.80;;;;;;;19.05;43.10;101208.66;4179633;28;20423;-68
2022/06/14 00:17:25;;;;;;;6.38;2.00;;;;;;;18.99;43.15;101209.56;4176512;28;20071;-68
2022/06/14 00:19:28;;;;;;;5.22;2.53;;;;;;;18.98;43.37;101204.31;4166030;28;20044;-68
2022/06/14 00:21:32;;;;;;;6.20;2.65;;;;;;;19.00;42.77;101208.69;4194011;28;20060;-68
2022/06/14 00:23:35;;;;;;;5.03;2.30;;;;;;;18.93;42.86;101207.00;4168785;28;20525;-68
2022/06/14 00:25:41;;;;;;;10.47;3.30;;;;;;;19.01;42.42;101204.28;4165602;28;20312;-68
2022/06/14 00:27:44;;;;;;;7.47;2.65;;;;;;;18.93;42.53;101209.63;4166570;28;20386;-68
2022/06/14 00:29:47;;;;;;;8.10;2.70;;;;;;;18.93;42.90;101200.88;4174332;28;20037;-68
2022/06/14 00:31:51;;;;;;;6.28;2.42;;;;;;;18.92;42.87;101197.34;4171301;28;20033;-68
2022/06/14 00:33:54;;;;;;;6.15;2.35;;;;;;;18.87;42.74;101198.28;4169184;28;20480;-68
2022/06/14 00:35:59;;;;;;;8.13;2.50;;;;;;;18.88;42.58;101202.66;4173543;28;20044;-68
2022/06/14 00:38:03;;;;;;;7.30;2.42;;;;;;;18.87;42.69;101200.94;4180389;28;20128;-68
2022/06/14 00:40:10;;;;;;;7.00;2.15;;;;;;;18.74;43.11;101197.47;4171771;28;20037;-68
2022/06/14 00:42:18;;;;;;;5.97;2.78;;;;;;;18.76;43.11;101193.94;4170186;28;20271;-68
2022/06/14 00:44:24;;;;;;;5.22;2.15;;;;;;;18.71;43.21;101198.38;4176082;28;20037;-68
2022/06/14 00:46:34;;;;;;;5.55;2.03;;;;;;;18.66;43.20;101197.50;4173624;28;20049;-67
2022/06/14 00:48:40;;;;;;;6.50;2.38;;;;;;;18.60;43.63;101195.81;4173091;28;20037;-68
2022/06/14 00:50:49;;;;;;;5.13;2.30;;;;;;;18.60;43.71;101192.28;4165430;28;20044;-68
2022/06/14 00:52:55;;;;;;;8.35;2.47;;;;;;;18.64;43.65;101194.03;4174101;28;20064;-68
2022/06/14 00:55:03;;;;;;;6.45;2.30;;;;;;;18.61;43.43;101194.91;4173797;28;20068;-68
2022/06/14 00:57:11;;;;;;;7.32;2.30;;;;;;;18.55;43.87;101188.84;4170024;28;20103;-68
2022/06/14 00:59:21;;;;;;;7.07;2.85;;;;;;;18.52;43.72;101196.75;4177757;28;20098;-68
2022/06/14 01:01:27;;;;;;;11.07;2.47;;;;;;;18.53;43.84;101198.50;4169238;28;20457;-68
2022/06/14 01:03:37;;;;;;;6.10;2.47;;;;;;;18.43;43.78;101190.66;4173228;28;20041;-68
2022/06/14 01:08:08;;;;;;;4.70;2.13;;;;;;;18.36;43.92;101186.31;4165253;28;20111;-68
2022/06/14 01:10:15;;;;;;;8.20;2.25;;;;;;;18.39;44.06;101183.66;4165796;28;20120;-68
2022/06/14 01:12:20;;;;;;;7.85;2.60;;;;;;;18.36;44.31;101190.72;4165056;28;20037;-68
2022/06/14 01:14:31;;;;;;;7.10;2.10;;;;;;;18.33;44.41;101186.34;4173041;28;20051;-68
2022/06/14 01:16:34;;;;;;;7.82;2.47;;;;;;;18.30;44.54;101189.00;4176252;28;20064;-68
2022/06/14 01:18:38;;;;;;;7.40;3.15;;;;;;;18.33;44.16;101188.97;4175313;28;20676;-68
2022/06/14 01:20:43;;;;;;;6.95;3.42;;;;;;;18.31;44.50;101183.72;4169289;28;20444;-68
2022/06/14 01:22:49;;;;;;;8.27;2.58;;;;;;;18.26;44.44;101192.53;4167343;28;20041;-68
2022/06/14 01:24:53;;;;;;;7.68;2.55;;;;;;;18.24;44.80;101189.03;4166765;28;20083;-68
2022/06/14 01:26:59;;;;;;;5.20;2.05;;;;;;;18.22;44.63;101185.53;4168253;28;20094;-68
2022/06/14 01:29:05;;;;;;;4.80;1.98;;;;;;;18.26;44.62;101182.00;4169309;28;20120;-67
2022/06/14 01:31:09;;;;;;;6.10;2.03;;;;;;;18.31;44.36;101185.47;4174386;28;20048;-67
2022/06/14 01:33:16;;;;;;;8.10;2.55;;;;;;;18.22;44.51;101180.25;4176143;28;20413;-67
2022/06/14 01:35:22;;;;;;;5.82;2.10;;;;;;;18.20;44.51;101182.91;4165133;28;20038;-67
2022/06/14 01:37:26;;;;;;;11.88;2.35;;;;;;;18.24;44.42;101178.50;4163011;28;20133;-66
2022/06/14 01:39:30;;;;;;;6.20;2.10;;;;;;;18.17;44.61;101177.66;4179170;28;20030;-67
2022/06/14 01:41:52;;;;;;;5.43;2.25;;;;;;;18.05;45.22;101178.59;4170422;28;20061;-67
2022/06/14 01:44:18;;;;;;;5.35;2.10;;;;;;;18.05;45.21;101180.38;4164944;28;20133;-67
2022/06/14 01:46:24;;;;;;;5.78;2.08;;;;;;;17.98;45.21;101182.16;4173209;28;20127;-67
2022/06/14 01:48:31;;;;;;;7.50;2.28;;;;;;;17.99;45.13;101180.38;4163710;28;20444;-67
2022/06/14 01:53:19;;;;;;;5.68;2.17;;;;;;;17.92;45.34;101187.44;4164194;28;20041;-67
2022/06/14 01:55:35;;;;;;;6.88;2.28;;;;;;;17.92;45.71;101183.03;4165287;28;20124;-67
2022/06/14 01:57:45;;;;;;;8.73;2.45;;;;;;;17.97;45.35;101177.75;4171022;28;20047;-67
2022/06/14 01:59:54;;;;;;;5.88;2.78;;;;;;;17.90;45.46;101179.56;4160614;28;20037;-67
2022/06/14 02:02:02;;;;;;;5.15;1.98;;;;;;;17.82;45.70;101180.44;4178879;28;20518;-67
2022/06/14 02:06:44;;;;;;;6.82;2.30;;;;;;;17.73;45.96;101183.97;4164831;28;20136;-67
2022/06/14 02:08:53;;;;;;;7.18;2.50;;;;;;;17.74;45.84;101188.34;4173162;28;20053;-67
2022/06/14 02:11:05;;;;;;;7.18;2.95;;;;;;;17.70;46.09;101184.00;4170502;28;20073;-68
2022/06/14 02:13:12;;;;;;;7.68;2.03;;;;;;;17.70;46.12;101181.38;4164180;28;20052;-67
2022/06/14 02:15:25;;;;;;;7.00;2.20;;;;;;;17.75;45.96;101185.69;4169236;28;20038;-68
2022/06/14 02:17:35;;;;;;;4.80;2.15;;;;;;;17.70;46.23;101190.13;4172996;28;20052;-68
2022/06/14 02:19:41;;;;;;;9.73;2.60;;;;;;;17.79;46.17;101183.94;4171722;28;20055;-68
2022/06/14 02:21:49;;;;;;;7.47;2.20;;;;;;;17.72;46.00;101183.09;4170327;28;20033;-67
2022/06/14 02:23:58;;;;;;;6.70;2.95;;;;;;;17.68;46.28;101194.50;4161988;28;20041;-68
2022/06/14 02:26:09;;;;;;;7.35;2.10;;;;;;;17.67;46.32;101190.13;4164863;28;20514;-67
2022/06/14 02:28:17;;;;;;;5.43;1.90;;;;;;;17.62;46.49;101189.25;4172431;28;20518;-68
2022/06/14 02:30:26;;;;;;;7.78;2.20;;;;;;;17.62;46.49;101173.50;4169986;28;20602;-68
2022/06/14 02:32:36;;;;;;;6.00;2.60;;;;;;;17.62;46.53;101184.00;4170020;28;20408;-68
2022/06/14 02:34:44;;;;;;;6.47;1.98;;;;;;;17.62;46.18;101189.25;4170273;28;20099;-68
2022/06/14 02:36:50;;;;;;;6.07;1.88;;;;;;;17.55;46.62;101185.78;4164200;28;20409;-68
2022/06/14 02:38:57;;;;;;;5.32;1.95;;;;;;;17.55;46.69;101187.53;4175520;28;20048;-66
2022/06/14 02:41:07;;;;;;;7.18;2.40;;;;;;;17.58;46.50;101192.78;4167106;28;20404;-67
2022/06/14 02:43:17;;;;;;;8.10;2.38;;;;;;;17.48;46.64;101191.06;4178855;28;20480;-67
2022/06/14 02:45:25;;;;;;;4.45;2.08;;;;;;;17.50;46.41;101187.53;4164803;28;20041;-67
2022/06/14 02:47:35;;;;;;;8.43;2.55;;;;;;;17.47;46.59;101194.59;4166255;28;20041;-67
2022/06/14 02:49:44;;;;;;;5.03;1.95;;;;;;;17.44;46.79;101184.94;4163656;28;20030;-67
2022/06/14 02:51:52;;;;;;;4.03;1.90;;;;;;;17.39;47.63;101189.31;4175977;28;20049;-68
2022/06/14 02:53:59;;;;;;;5.57;1.90;;;;;;;17.41;48.03;101185.81;4170369;28;20037;-67
2022/06/14 02:56:09;;;;;;;3.40;1.83;;;;;;;17.39;48.40;101178.81;4174682;28;20099;-68
2022/06/14 02:58:18;;;;;;;3.83;1.67;;;;;;;17.39;48.31;101189.31;4170273;28;20137;-69
2022/06/14 03:00:25;;;;;;;8.30;2.42;;;;;;;17.35;48.17;101177.94;4167682;28;20444;-68
2022/06/14 03:02:40;;;;;;;5.95;2.08;;;;;;;17.32;48.06;101177.97;4172637;28;20415;-67
2022/06/14 03:04:47;;;;;;;5.32;2.63;;;;;;;17.22;48.05;101173.59;4172282;28;20117;-67
2022/06/14 03:06:58;;;;;;;6.22;2.22;;;;;;;17.20;47.82;101175.34;4167496;28;20047;-68
2022/06/14 03:09:05;;;;;;;4.68;1.95;;;;;;;17.13;48.33;101182.38;4176143;28;20069;-68
2022/06/14 03:11:18;;;;;;;5.78;2.20;;;;;;;17.20;47.88;101175.34;4163417;28;20044;-67
2022/06/14 03:13:29;;;;;;;8.18;2.30;;;;;;;17.20;47.83;101176.25;4171222;28;20033;-68
2022/06/14 03:15:42;;;;;;;5.25;2.40;;;;;;;17.20;47.69;101177.97;4173007;28;20132;-67
2022/06/14 03:17:55;;;;;;;4.80;2.38;;;;;;;17.16;47.88;101181.50;4172135;28;20033;-67
2022/06/14 03:20:08;;;;;;;6.38;2.70;;;;;;;17.19;47.69;101173.63;4163592;28;20124;-68
2022/06/14 03:22:18;;;;;;;9.85;2.17;;;;;;;17.12;48.05;101166.63;4163285;28;20046;-68
2022/06/14 03:24:30;;;;;;;5.80;2.03;;;;;;;17.04;48.01;101163.97;4171007;28;20051;-68
2022/06/14 03:26:43;;;;;;;6.68;2.00;;;;;;;17.01;48.10;101172.75;4171345;28;20104;-68
2022/06/14 03:28:49;;;;;;;6.97;2.65;;;;;;;17.02;48.30;101165.75;4173725;28;20504;-67
2022/06/14 03:31:01;;;;;;;8.45;2.58;;;;;;;17.04;48.11;101170.13;4163542;28;20034;-68
2022/06/14 03:33:08;;;;;;;6.88;2.35;;;;;;;17.04;48.24;101178.00;4169189;28;20056;-67
2022/06/14 03:35:17;;;;;;;6.30;2.58;;;;;;;17.07;48.11;101175.38;4163162;28;20128;-68
2022/06/14 03:37:21;;;;;;;5.22;2.35;;;;;;;17.10;48.23;101174.50;4163712;28;20489;-68
2022/06/14 03:39:30;;;;;;;5.38;2.20;;;;;;;17.06;48.59;101173.63;4172930;28;20037;-68
2022/06/14 03:41:37;;;;;;;8.85;2.58;;;;;;;17.08;48.16;101174.50;4166467;28;20131;-67
2022/06/14 03:43:41;;;;;;;6.35;2.65;;;;;;;17.03;48.06;101170.13;4184261;28;20040;-67
2022/06/14 03:45:52;;;;;;;7.03;2.87;;;;;;;17.02;48.36;101177.13;4180148;28;20044;-68
2022/06/14 03:47:55;;;;;;;5.78;2.80;;;;;;;16.98;48.33;101179.75;4178167;28;20571;-67
2022/06/14 03:50:01;;;;;;;8.38;3.33;;;;;;;16.95;48.28;101182.38;4193027;28;20144;-67
2022/06/14 03:52:13;;;;;;;14.30;2.13;;;;;;;16.93;49.07;101183.25;4174529;28;20046;-67
2022/06/14 03:54:41;;;;;;;7.80;2.35;;;;;;;16.94;49.02;101176.28;4172408;28;20049;-67
2022/06/14 03:57:00;;;;;;;7.00;2.55;;;;;;;16.96;48.80;101177.13;4173621;28;20131;-67
2022/06/14 03:59:20;;;;;;;6.68;2.67;;;;;;;16.88;49.00;101178.88;4173517;28;20072;-67
2022/06/14 04:01:28;;;;;;;6.80;2.35;;;;;;;16.81;48.83;101187.63;4176119;28;20579;-67
2022/06/14 04:03:44;;;;;;;4.32;2.05;;;;;;;16.79;49.08;101184.09;4174256;28;20072;-69
2022/06/14 04:06:00;;;;;;;7.97;2.53;;;;;;;16.84;49.19;101185.00;4171714;28;20042;-68
2022/06/14 04:08:17;;;;;;;6.72;2.60;;;;;;;16.84;49.35;101182.38;4170281;28;20511;-67
2022/06/14 04:10:30;;;;;;;7.25;2.55;;;;;;;16.85;49.19;101185.00;4173844;28;20029;-67
2022/06/14 04:12:44;;;;;;;5.88;1.92;;;;;;;16.80;50.19;101180.59;4176670;28;20037;-67
2022/06/14 04:15:02;;;;;;;5.72;1.85;;;;;;;16.75;51.37;101188.50;4177950;28;20468;-68
2022/06/14 04:17:15;;;;;;;7.28;2.30;;;;;;;16.79;51.41;101194.59;4167824;28;20545;-68
2022/06/14 04:19:31;;;;;;;8.45;2.38;;;;;;;16.85;50.53;101197.22;4173248;28;20064;-68
2022/06/14 04:21:48;;;;;;;5.95;2.20;;;;;;;16.94;49.17;101194.66;4180400;28;20175;-68
2022/06/14 04:23:57;;;;;;;10.05;2.95;;;;;;;17.00;48.75;101199.03;4173297;28;20033;-68
2022/06/14 04:26:06;;;;;;;7.38;2.65;;;;;;;17.09;50.51;101192.00;4165868;28;20493;-63
2022/06/14 04:28:19;;;;;;;7.72;2.00;;;;;;;17.37;48.83;101194.59;4176903;28;20045;-63
2022/06/14 04:30:29;;;;;;;8.20;2.58;;;;;;;17.39;48.08;101197.19;4163468;28;20053;-64
2022/06/14 04:32:37;;;;;;;8.88;2.70;;;;;;;17.37;47.63;101196.34;4173692;28;20055;-65
2022/06/14 04:34:46;;;;;;;4.15;1.90;;;;;;;17.26;49.58;101201.63;4168749;28;20045;-64
2022/06/14 04:36:55;;;;;;;6.78;2.10;;;;;;;17.58;50.43;101192.78;4166311;28;20049;-64
2022/06/14 04:39:05;;;;;;;5.57;2.03;;;;;;;18.00;48.94;101193.53;4164710;28;20045;-64
2022/06/14 04:41:22;;;;;;;8.15;3.20;;;;;;;18.02;47.15;101198.78;4170146;28;20037;-64
2022/06/14 04:43:33;;;;;;;7.85;2.17;;;;;;;17.92;47.54;101190.06;4171556;28;20065;-67
2022/06/14 04:45:41;;;;;;;8.77;2.47;;;;;;;17.78;47.05;101196.25;4172284;28;20136;-67
2022/06/14 04:47:51;;;;;;;10.88;2.63;;;;;;;17.60;47.81;101189.28;4169258;28;20163;-67
2022/06/14 04:49:59;;;;;;;6.03;1.98;;;;;;;17.53;47.47;101184.03;4165887;28;20373;-67
2022/06/14 04:52:07;;;;;;;4.68;1.90;;;;;;;17.43;48.62;101186.72;4164312;28;20045;-67
2022/06/14 04:54:16;;;;;;;6.15;2.72;;;;;;;17.61;47.06;101188.41;4165598;28;20128;-66
2022/06/14 04:56:23;;;;;;;6.18;2.83;;;;;;;17.59;47.25;101189.28;4165931;28;20133;-67
2022/06/14 04:58:32;;;;;;;5.13;2.38;;;;;;;17.43;47.86;101191.97;4172974;28;20056;-67
2022/06/14 05:00:40;;;;;;;6.35;2.40;;;;;;;17.52;47.61;101192.78;4175511;28;20139;-66
2022/06/14 05:02:50;;;;;;;11.82;2.50;;;;;;;17.66;47.17;101193.63;4181976;28;20139;-66
2022/06/14 05:04:57;;;;;;;6.38;2.40;;;;;;;17.56;47.24;101189.28;4182293;28;20140;-67
2022/06/14 05:07:06;;;;;;;10.02;2.83;;;;;;;17.55;47.32;101187.53;4182198;28;20041;-67
2022/06/14 05:09:15;;;;;;;7.30;2.20;;;;;;;17.61;47.37;101187.53;4174144;28;20488;-67
2022/06/14 05:11:24;;;;;;;7.47;2.53;;;;;;;17.57;47.92;101191.03;4164316;28;20655;-66
2022/06/14 05:13:37;;;;;;;8.45;2.90;;;;;;;17.67;46.74;101190.13;4164073;28;20112;-67
2022/06/14 05:15:46;;;;;;;5.93;2.45;;;;;;;17.62;46.68;101184.00;4164365;28;20389;-66
2022/06/14 05:17:54;;;;;;;5.60;2.40;;;;;;;17.61;46.53;101185.78;4165077;28;20049;-66
2022/06/14 05:20:02;;;;;;;6.57;3.22;;;;;;;17.67;45.83;101179.63;4164213;28;20037;-66
2022/06/14 05:22:11;;;;;;;7.38;3.03;;;;;;;17.56;45.93;101179.63;4161519;28;20037;-66
2022/06/14 05:24:15;;;;;;;7.20;3.03;;;;;;;17.56;46.81;101179.63;4172169;28;20048;-66
2022/06/14 05:26:26;;;;;;;7.40;2.55;;;;;;;17.45;46.58;101170.94;4164749;28;20075;-66
2022/06/14 05:28:36;;;;;;;10.32;2.58;;;;;;;17.44;46.58;101175.28;4164730;28;20140;-66
2022/06/14 05:30:47;;;;;;;8.82;3.15;;;;;;;17.55;46.46;101179.63;4164106;28;20069;-66
2022/06/14 05:32:56;;;;;;;5.85;2.30;;;;;;;17.62;46.40;101176.13;4165220;28;20120;-66
2022/06/14 05:35:14;;;;;;;7.75;2.78;;;;;;;17.53;46.48;101171.75;4165308;28;20120;-66
2022/06/14 05:37:26;;;;;;;7.80;3.25;;;;;;;17.59;46.49;101165.63;4164471;28;20049;-66
2022/06/14 05:39:35;;;;;;;8.25;2.50;;;;;;;17.58;46.54;101175.25;4165706;28;20158;-66
2022/06/14 05:41:43;;;;;;;8.73;2.83;;;;;;;17.69;46.55;101164.69;4163652;28;20072;-66
2022/06/14 05:43:50;;;;;;;7.45;2.83;;;;;;;17.67;46.43;101169.09;4165119;28;20042;-66
2022/06/14 05:46:00;;;;;;;5.20;2.90;;;;;;;17.70;46.35;101165.59;4163869;28;20412;-66
2022/06/14 05:48:06;;;;;;;7.50;3.15;;;;;;;17.77;46.40;101172.53;4164895;28;20518;-66
2022/06/14 05:50:14;;;;;;;7.25;3.00;;;;;;;17.77;46.60;101173.44;4173101;28;20133;-66
2022/06/14 05:52:23;;;;;;;6.80;2.90;;;;;;;17.75;46.91;101169.06;4163283;28;20067;-66
2022/06/14 05:54:31;;;;;;;10.43;3.58;;;;;;;17.81;46.83;101169.03;4164869;28;20038;-66
2022/06/14 05:56:42;;;;;;;8.98;3.45;;;;;;;17.86;47.15;101166.38;4169275;28;20052;-66
2022/06/14 05:58:53;;;;;;;8.73;3.58;;;;;;;18.03;46.09;101171.59;4164860;28;20405;-66
2022/06/14 06:00:58;;;;;;;12.95;3.55;;;;;;;17.92;46.46;101167.25;4164903;28;20073;-67
2022/06/14 06:03:08;;;;;;;7.80;2.88;;;;;;;17.97;46.40;101175.13;4164466;28;20057;-66
2022/06/14 06:05:17;;;;;;;9.73;3.03;;;;;;;17.96;45.82;101163.75;4164568;28;20065;-66
2022/06/14 06:07:24;;;;;;;9.18;3.90;;;;;;;17.95;46.49;101169.00;4172522;28;20064;-66
2022/06/14 06:09:31;;;;;;;8.27;2.70;;;;;;;17.95;46.41;101172.50;4156880;28;20496;-67
2022/06/14 06:11:38;;;;;;;6.95;2.78;;;;;;;18.12;45.42;101174.16;4180808;28;20041;-66
2022/06/14 06:13:45;;;;;;;8.95;3.45;;;;;;;18.23;45.05;101174.97;4179974;28;20072;-66
2022/06/14 06:15:53;;;;;;;8.95;2.88;;;;;;;18.10;45.68;101176.81;4179394;28;20543;-67
2022/06/14 06:18:02;;;;;;;6.78;2.53;;;;;;;18.19;45.35;101169.75;4172786;28;20042;-66
2022/06/14 06:20:13;;;;;;;6.93;3.10;;;;;;;18.15;45.46;101176.81;4172843;28;20041;-66
2022/06/14 06:22:21;;;;;;;8.23;3.45;;;;;;;18.21;45.42;101175.88;4162983;28;20045;-66
2022/06/14 06:24:32;;;;;;;9.43;2.97;;;;;;;18.07;45.86;101181.22;4166189;28;20129;-67
2022/06/14 06:26:39;;;;;;;9.48;2.97;;;;;;;18.17;46.10;101176.78;4160395;28;21549;-67
2022/06/14 06:28:49;;;;;;;11.15;3.40;;;;;;;18.32;45.61;101179.31;4164386;28;20039;-67
2022/06/14 06:31:00;;;;;;;9.77;3.30;;;;;;;18.40;45.24;101164.34;4172344;28;20500;-67
2022/06/14 06:33:03;;;;;;;11.93;3.42;;;;;;;18.33;45.70;101172.31;4172065;28;20033;-66
2022/06/14 06:35:07;;;;;;;9.73;3.17;;;;;;;18.43;45.04;101159.06;4180718;28;20040;-67
2022/06/14 06:37:19;;;;;;;9.60;3.40;;;;;;;18.47;45.12;101160.81;4180793;28;20572;-66
2022/06/14 06:39:32;;;;;;;13.23;3.38;;;;;;;18.45;45.82;101164.31;4179774;28;20039;-67
2022/06/14 06:41:54;;;;;;;11.77;3.67;;;;;;;18.61;45.40;101168.56;4170670;28;20073;-67
2022/06/14 06:44:00;;;;;;;19.63;4.28;;;;;;;18.78;44.80;101170.22;4159675;28;20053;-67
2022/06/14 06:46:09;;;;;;;13.07;4.53;;;;;;;18.73;44.91;101172.88;4174065;28;20045;-67
2022/06/14 06:48:21;;;;;;;20.92;4.75;;;;;;;18.77;44.94;101173.75;4164284;28;20072;-66
2022/06/14 06:50:26;;;;;;;15.27;3.95;;;;;;;18.78;45.30;101165.81;4164589;28;20073;-66
2022/06/14 06:52:39;;;;;;;10.27;3.42;;;;;;;18.82;44.83;101170.19;4163746;28;20088;-67
2022/06/14 06:54:49;;;;;;;12.93;4.63;;;;;;;18.87;44.42;101171.94;4171330;28;20040;-67
2022/06/14 06:56:55;;;;;;;11.63;3.72;;;;;;;18.80;44.98;101174.56;4159662;28;20049;-67
2022/06/14 06:59:02;;;;;;;15.55;3.65;;;;;;;18.92;44.67;101172.75;4172228;28;20041;-67
2022/06/14 07:01:13;;;;;;;17.10;4.22;;;;;;;19.25;43.58;101168.06;4170765;28;20060;-67
2022/06/14 07:03:24;;;;;;;12.55;4.20;;;;;;;19.10;44.12;101169.97;4171795;28;20061;-67
2022/06/14 07:05:27;;;;;;;15.85;3.33;;;;;;;19.18;44.38;101167.25;4173929;28;20044;-67
2022/06/14 07:07:37;;;;;;;14.20;3.60;;;;;;;19.34;43.35;101168.81;4180494;28;20133;-67
2022/06/14 07:09:46;;;;;;;13.60;3.28;;;;;;;19.31;43.77;101168.84;4180532;28;20051;-67
2022/06/14 07:11:54;;;;;;;12.80;4.03;;;;;;;19.54;43.24;101165.97;4178329;28;20048;-67
2022/06/14 07:14:05;;;;;;;13.73;3.72;;;;;;;19.56;42.44;101160.66;4173326;28;20052;-67
2022/06/14 07:16:18;;;;;;;8.75;2.55;;;;;;;19.41;43.34;101164.38;4163997;28;20045;-67
2022/06/14 07:18:25;;;;;;;9.65;3.90;;;;;;;19.47;43.79;101158.16;4166995;28;20128;-67
2022/06/14 07:20:36;;;;;;;10.35;3.75;;;;;;;19.65;42.63;101159.69;4166164;28;20041;-67
2022/06/14 07:22:44;;;;;;;15.77;3.70;;;;;;;19.66;42.96;101166.72;4181983;28;20125;-67
2022/06/14 07:24:54;;;;;;;11.80;3.35;;;;;;;19.84;42.02;101157.72;4167260;28;20463;-67
2022/06/14 07:27:21;;;;;;;12.27;3.10;;;;;;;19.79;42.26;101151.66;4165847;28;20046;-67
2022/06/14 07:29:30;;;;;;;10.15;2.78;;;;;;;19.80;42.48;101154.25;4176544;28;20127;-68
2022/06/14 07:31:43;;;;;;;11.00;3.17;;;;;;;19.75;42.69;101155.19;4165869;28;20444;-68
2022/06/14 07:33:46;;;;;;;11.25;3.67;;;;;;;19.79;42.49;101144.59;4176102;28;20523;-67
2022/06/14 07:35:53;;;;;;;20.13;4.22;;;;;;;20.10;41.85;101157.38;4175139;28;20037;-67
2022/06/14 07:38:03;;;;;;;13.77;3.58;;;;;;;20.27;40.68;101153.59;4180837;28;20067;-67
2022/06/14 07:40:31;;;;;;;8.25;2.75;;;;;;;20.03;41.15;101150.44;4165831;28;20536;-67
2022/06/14 07:42:40;;;;;;;8.65;2.60;;;;;;;19.97;41.46;101153.16;4178879;28;20123;-67
2022/06/14 07:44:51;;;;;;;10.48;2.70;;;;;;;20.07;41.55;101144.22;4173821;28;20061;-67
2022/06/14 07:47:00;;;;;;;8.05;3.08;;;;;;;20.13;41.66;101148.53;4179269;28;20433;-67
2022/06/14 07:49:13;;;;;;;8.63;2.40;;;;;;;20.22;41.52;101151.03;4183455;28;20040;-68
2022/06/14 07:51:24;;;;;;;15.45;3.45;;;;;;;20.31;41.88;101147.38;4182259;28;20048;-67
2022/06/14 07:53:33;;;;;;;7.32;2.35;;;;;;;20.42;41.88;101155.16;4173048;28;20041;-68
2022/06/14 07:55:42;;;;;;;8.18;2.33;;;;;;;20.41;41.56;101146.34;4182009;28;20052;-67
2022/06/14 07:57:50;;;;;;;12.05;2.92;;;;;;;20.52;41.49;101154.97;4165540;28;20482;-67
2022/06/14 08:01:07;;;;;;;7.13;2.95;;;;;;;20.54;41.44;101150.53;4166831;28;20049;-67
2022/06/14 08:02:32;;;;;;;6.30;2.55;;;;;;;20.67;40.62;101142.47;4169056;28;20033;-67
2022/06/14 08:04:40;;;;;;;6.60;2.67;;;;;;;20.71;40.62;101144.16;4168239;28;20520;-67
2022/06/14 08:06:48;;;;;;;7.30;2.58;;;;;;;20.78;40.13;101139.63;4165509;28;20084;-68
2022/06/14 08:08:57;;;;;;;4.85;1.90;;;;;;;20.98;39.49;101137.50;4165490;28;20076;-67
2022/06/14 08:11:06;;;;;;;5.22;2.08;;;;;;;20.98;39.85;101141.91;4166493;28;20064;-68
2022/06/14 08:13:11;;;;;;;9.15;2.78;;;;;;;21.05;39.36;101133.84;4174343;28;20488;-67
2022/06/14 08:15:18;;;;;;;8.68;3.15;;;;;;;21.32;37.78;101138.63;4166537;28;20045;-67
2022/06/14 08:17:26;;;;;;;11.63;3.15;;;;;;;21.23;37.71;101139.69;4166647;28;20099;-67
2022/06/14 08:19:36;;;;;;;9.40;2.78;;;;;;;21.20;38.30;101131.81;4166429;28;20128;-68
2022/06/14 08:21:43;;;;;;;5.15;1.98;;;;;;;21.28;37.78;101133.41;4169445;28;20051;-68
2022/06/14 08:23:51;;;;;;;7.40;2.72;;;;;;;21.20;37.40;101132.69;4174946;28;20053;-68
2022/06/14 08:26:00;;;;;;;4.85;1.85;;;;;;;21.23;37.84;101131.75;4164756;28;20481;-68
2022/06/14 08:28:08;;;;;;;11.02;2.83;;;;;;;21.56;36.84;101129.38;4165370;28;20554;-67
2022/06/14 08:30:17;;;;;;;9.27;2.53;;;;;;;21.52;36.65;101123.25;4180726;28;20156;-67
2022/06/14 08:32:36;;;;;;;10.27;2.95;;;;;;;21.66;36.52;101116.81;4180935;28;20048;-67
2022/06/14 08:34:48;;;;;;;7.47;2.88;;;;;;;21.65;36.96;101112.44;4166220;28;20037;-68
2022/06/14 08:36:57;;;;;;;10.65;2.85;;;;;;;21.54;36.74;101121.47;4165013;28;20045;-68
2022/06/14 08:39:07;;;;;;;16.65;2.80;;;;;;;21.69;36.35;101114.97;4166150;28;20045;-67
2022/06/14 08:41:33;;;;;;;5.20;2.35;;;;;;;21.93;34.98;101112.69;4165880;28;20048;-68
2022/06/14 08:43:44;;;;;;;8.75;2.60;;;;;;;21.81;34.86;101105.03;4176872;28;20542;-67
2022/06/14 08:46:04;;;;;;;7.10;2.47;;;;;;;21.84;35.18;101115.53;4181349;28;20052;-68
2022/06/14 08:48:29;;;;;;;7.43;2.22;;;;;;;21.91;35.09;101112.72;4182530;28;20496;-68
2022/06/14 08:51:11;;;;;;;6.32;2.10;;;;;;;21.97;35.37;101111.72;4159112;28;20045;-68
2022/06/14 08:53:50;;;;;;;4.28;1.65;;;;;;;22.09;35.48;101095.56;4125181;28;20149;-68
2022/06/14 08:56:20;;;;;;;5.88;1.98;;;;;;;22.22;34.29;101096.09;4164701;28;20532;-68
2022/06/14 08:58:56;;;;;;;3.42;1.67;;;;;;;22.18;35.05;101110.34;4165933;28;20061;-68
2022/06/14 09:01:07;;;;;;;;;;;;;;;22.14;34.71;101100.75;4173976;28;20049;-68
2022/06/14 09:03:47;;;;;;;6.60;2.45;;;;;;;22.26;34.70;101103.06;4169587;28;20012;-68
2022/06/14 09:05:58;;;;;;;7.05;2.20;;;;;;;22.35;34.58;101099.38;4170517;28;20060;-68
2022/06/14 09:08:42;;;;;;;4.15;1.92;;;;;;;22.47;35.13;101104.38;4180971;28;20045;-68
2022/06/14 09:11:08;;;;;;;4.57;2.58;;;;;;;22.62;33.22;101097.81;4155455;28;20057;-67
2022/06/14 09:13:36;;;;;;;8.80;2.65;;;;;;;22.57;33.33;101099.69;4165248;28;20124;-67
2022/06/14 09:16:14;;;;;;;7.45;2.83;;;;;;;22.77;33.23;101095.69;4166779;28;20120;-68
2022/06/14 09:18:38;;;;;;;5.60;2.38;;;;;;;22.56;33.21;101091.78;4139562;28;20053;-68
2022/06/14 09:21:04;;;;;;;7.68;2.40;;;;;;;22.57;33.73;101091.75;4163957;28;20041;-67
2022/06/14 09:23:15;;;;;;;;;;;;;;;22.65;33.83;101097.72;4179854;28;20044;-67
2022/06/14 09:25:34;;;;;;;7.10;2.35;;;;;;;22.71;33.92;101087.91;4164317;28;19943;-68
2022/06/14 09:28:11;;;;;;;6.65;2.65;;;;;;;22.92;33.07;101086.44;4181466;28;20047;-68
2022/06/14 09:30:53;;;;;;;7.63;2.22;;;;;;;22.96;32.67;101090.75;4180474;28;20128;-68
2022/06/14 09:33:33;;;;;;;9.85;2.25;;;;;;;22.92;32.88;101084.66;4161236;28;20053;-68
2022/06/14 09:36:10;;;;;;;10.75;2.63;;;;;;;23.01;33.06;101084.41;4158409;28;20064;-68
2022/06/14 09:38:30;;;;;;;5.40;2.03;;;;;;;22.95;33.39;101079.25;4132838;28;20147;-68
2022/06/14 09:40:47;;;;;;;8.85;2.80;;;;;;;22.87;33.04;101083.03;4164044;28;20124;-69
2022/06/14 09:43:37;;;;;;;6.63;2.60;;;;;;;22.92;33.10;101073.19;4164767;28;20049;-68
2022/06/14 09:45:57;;;;;;;7.90;2.60;;;;;;;23.21;32.54;101077.69;4171381;28;20102;-68
2022/06/14 09:48:36;;;;;;;8.40;3.08;;;;;;;23.31;32.40;101078.31;4167063;28;20041;-68
2022/06/14 09:51:03;;;;;;;6.70;2.58;;;;;;;23.60;31.90;101066.81;4163754;28;20172;-67
2022/06/14 09:53:53;;;;;;;7.43;2.75;;;;;;;23.47;31.61;101068.13;4164582;28;20136;-68
2022/06/14 09:56:38;;;;;;;10.00;2.72;;;;;;;23.43;31.46;101064.66;4143499;28;20527;-68
2022/06/14 09:59:16;;;;;;;7.60;2.88;;;;;;;23.59;30.82;101058.91;4175350;28;20518;-68
2022/06/14 10:01:28;;;;;;;5.13;2.80;;;;;;;23.61;31.26;101057.97;4163551;28;20136;-68
2022/06/14 10:04:08;;;;;;;6.13;2.33;;;;;;;23.54;32.15;101059.06;4163296;28;20065;-68
2022/06/14 10:06:37;;;;;;;5.13;2.35;;;;;;;23.53;31.79;101052.00;4092246;28;20066;-68
2022/06/14 10:09:01;;;;;;;7.80;2.70;;;;;;;23.78;30.89;101048.59;4176338;28;20420;-68
2022/06/14 10:11:22;;;;;;;3.65;1.83;;;;;;;23.91;30.82;101049.97;4179926;28;20068;-68
2022/06/14 10:13:51;;;;;;;5.90;1.90;;;;;;;23.75;30.70;101043.38;4176997;28;20051;-69
2022/06/14 10:16:04;;;;;;;4.28;2.00;;;;;;;23.86;31.46;101046.59;4160211;28;20050;-68
2022/06/14 10:18:34;;;;;;;3.78;2.10;;;;;;;23.94;31.95;101039.25;4164598;28;20052;-69
2022/06/14 10:21:01;;;;;;;8.48;2.30;;;;;;;24.12;31.54;101039.56;4164537;28;20042;-68